Terminal Aerodrome Forecast
Issued by NWS Grand Forks, ND

Home | Current Version | Previous Version | Graphics & Text | Print | Product List | Glossary On
Versions: 1 2 3 4 5 6 7 8 9 10 11 12 13 14 15 16 17 18 19 20 21
095
FTUS43 KFGF 220429 AAA
TAFGFK
TAF AMD
KGFK 220429Z 2204/2224 32005KT 1 1/2SM BR OVC003
     FM220600 01005KT 1 1/2SM BR OVC003
     FM221700 36014G22KT 3SM -SN OVC003
     FM222200 35015G23KT P6SM OVC010=

USA.gov is the U.S. government's official web portal to all federal, state and local government web resources and services.